aviador You're here:

SAWH Decoded Metar

USHUAIA in ARGENTINA
Report Time2018-04-21 07:00:00
UTC Time2018-04-21 08:00:02
Flight Rules vfr VFR
Wind320° at 06 kt
W.Decomp.*RWY 25: 3.4 kt HW 5.0 kt RCW
W.Rank320° ranks 5
Current wind is below 320° avg. (9.1)
Visibility9999 m
Phenomena:N/A
Clouds:N/A
Expected CloudBase > 2,400 ft AGL from Temp-Dew spread
CeilingNone
Temp05°C (ISA -10)
Dew Point-1°C (66% RH)
AAT0.7°C
QNH0988 hPa
Density Alt-213 ft
Elevation46 ft
Report Wrong Elevation
Raw Report
SAWH 210700Z 32006KT CAVOK 05/M01 Q0988=

Extra information for SAWH:More info

Metar Taf Metar & Taf Last 4 Metars F.Rules Stats Wind Profile Meteogram Temp Stats Airport Information Weather charts Add Link Nearby VenuesMetar ALERT Operation Metar Decoded Social comments